Time;durP1;ratioP1;P1;durP2;ratioP2;P2;SDS_P1;SDS_P2;PMS_P1;PMS_P2;Temp;Humidity;BMP_temperature;BMP_pressure;BME280_temperature;BME280_humidity;BME280_pressure;Samples;Min_cycle;Max_cycle;Signal;HPM_P1;HPM_P2
2022/05/31 00:01:36;;;;;;;6.70;5.30;;;9.10;99.90;;;9.18;100.00;99007.38;5041138;27;119515;-73
2022/05/31 00:04:06;;;;;;;7.22;5.15;;;9.10;99.90;;;9.19;100.00;99016.28;5040368;27;131029;-74
2022/05/31 00:06:34;;;;;;;7.03;5.38;;;9.10;99.90;;;9.18;100.00;99014.69;5042268;27;128583;-71
2022/05/31 00:09:03;;;;;;;7.60;5.30;;;9.10;99.90;;;9.16;100.00;99011.50;5044422;27;119690;-73
2022/05/31 00:11:35;;;;;;;8.55;6.13;;;9.10;99.90;;;9.14;100.00;99013.72;5045113;27;119381;-75
2022/05/31 00:14:04;;;;;;;7.50;5.50;;;9.00;99.90;;;9.09;100.00;99014.66;5046119;27;131028;-73
2022/05/31 00:16:33;;;;;;;7.35;6.22;;;9.00;99.90;;;9.08;100.00;99015.75;5043157;27;129194;-72
2022/05/31 00:19:02;;;;;;;7.25;5.65;;;9.00;99.90;;;9.11;100.00;99020.56;5045950;27;121372;-72
2022/05/31 00:21:41;;;;;;;8.20;5.90;;;9.00;99.90;;;9.08;100.00;99021.19;5044219;27;122900;-72
2022/05/31 00:24:16;;;;;;;11.25;6.28;;;9.00;99.90;;;8.94;100.00;99028.63;5038865;27;130150;-72
2022/05/31 00:26:46;;;;;;;8.85;6.18;;;9.00;99.90;;;8.87;100.00;99020.16;5039982;27;129999;-74
2022/05/31 00:29:15;;;;;;;8.18;6.13;;;9.10;99.90;;;8.89;100.00;99032.25;5042485;27;119591;-73
2022/05/31 00:31:48;;;;;;;8.23;6.18;;;9.10;99.90;;;8.95;100.00;99027.50;5025462;27;118581;-72
2022/05/31 00:34:18;;;;;;;8.82;6.10;;;9.10;99.90;;;8.86;100.00;99032.09;5055688;27;129732;-74
2022/05/31 00:36:50;;;;;;;11.18;6.40;;;9.10;99.90;;;8.89;100.00;99029.53;5042248;27;129193;-73
2022/05/31 00:39:19;;;;;;;8.48;6.18;;;9.00;99.90;;;8.92;100.00;99028.13;5025218;27;119111;-72
2022/05/31 00:42:01;;;;;;;9.43;7.00;;;9.10;99.90;;;8.87;100.00;99026.38;5040170;27;119385;-72
2022/05/31 00:44:30;;;;;;;8.02;6.28;;;9.10;99.90;;;8.89;100.00;99024.13;5023741;27;129636;-74
2022/05/31 00:47:01;;;;;;;8.18;6.53;;;9.10;99.90;;;8.90;100.00;99020.31;5041592;27;129871;-76
2022/05/31 00:49:35;;;;;;;8.55;6.22;;;9.10;99.90;;;8.91;100.00;99032.75;5025331;27;119556;-76
2022/05/31 00:52:10;;;;;;;9.05;7.05;;;9.10;99.90;;;8.90;100.00;99039.28;5041908;27;119218;-75
2022/05/31 00:54:49;;;;;;;8.98;6.03;;;9.00;99.90;;;8.87;100.00;99042.59;5041659;27;128877;-79
2022/05/31 00:57:20;;;;;;;9.60;6.85;;;9.00;99.90;;;8.85;100.00;99050.25;5039817;27;129812;-75
2022/05/31 00:59:54;;;;;;;8.70;6.78;;;9.00;99.90;;;8.81;100.00;99060.06;5042692;27;120352;-75
2022/05/31 01:02:25;;;;;;;9.10;6.85;;;9.10;99.90;;;8.84;100.00;99059.44;5040755;27;120260;-74
2022/05/31 01:05:00;;;;;;;8.23;6.82;;;8.90;99.90;;;8.85;100.00;99055.66;5021575;27;130018;-74
2022/05/31 01:07:29;;;;;;;10.45;6.88;;;9.00;99.90;;;8.81;100.00;99055.44;5021351;27;129513;-70
2022/05/31 01:09:58;;;;;;;9.75;7.07;;;9.10;99.90;;;8.83;100.00;99057.84;5006372;27;123440;-72
2022/05/31 01:12:51;;;;;;;10.05;7.35;;;9.00;99.90;;;8.78;100.00;99060.69;4982870;27;121789;-74
2022/05/31 01:15:43;;;;;;;8.77;7.35;;;9.00;99.90;;;8.86;100.00;99059.16;5002934;27;129884;-75
2022/05/31 01:18:31;;;;;;;10.35;7.32;;;8.90;99.90;;;8.75;100.00;99050.50;5042018;27;129797;-75
2022/05/31 01:21:19;;;;;;;9.05;7.53;;;8.90;99.90;;;8.69;100.00;99063.34;5039608;27;119774;-73
2022/05/31 01:24:12;;;;;;;9.25;7.38;;;8.90;99.90;;;8.73;100.00;99063.53;5007123;27;118170;-74
2022/05/31 01:26:50;;;;;;;10.20;7.88;;;8.90;99.90;;;8.72;100.00;99068.13;5038331;27;130503;-74
2022/05/31 01:29:24;;;;;;;9.73;7.28;;;8.80;99.90;;;8.68;100.00;99067.16;5024596;27;128538;-74
2022/05/31 01:31:59;;;;;;;10.90;7.45;;;8.80;99.90;;;8.70;100.00;99058.75;5024710;27;118592;-77
2022/05/31 01:34:35;;;;;;;10.35;7.53;;;8.80;99.90;;;8.73;100.00;99068.94;5039573;27;119628;-77
2022/05/31 01:37:07;;;;;;;12.65;7.95;;;8.80;99.90;;;8.66;100.00;99074.00;5019820;27;130648;-76
2022/05/31 01:39:42;;;;;;;9.85;7.65;;;8.80;99.90;;;8.64;100.00;99072.38;5039540;27;130918;-78
2022/05/31 01:42:19;;;;;;;9.45;8.13;;;8.70;99.90;;;8.66;100.00;99074.00;5021449;27;120245;-78
2022/05/31 01:44:55;;;;;;;9.02;7.22;;;8.70;99.90;;;8.64;100.00;99085.91;5039820;27;119716;-75
2022/05/31 01:47:24;;;;;;;10.88;7.70;;;8.70;99.90;;;8.62;100.00;99080.00;5020865;27;129849;-80
2022/05/31 01:49:55;;;;;;;11.35;8.68;;;8.60;99.90;;;8.66;100.00;99091.00;5007940;27;129292;-77
2022/05/31 01:52:26;;;;;;;8.55;7.18;;;8.70;99.90;;;8.66;100.00;99084.81;5021826;27;119635;-76
2022/05/31 01:54:55;;;;;;;11.50;7.00;;;8.70;99.90;;;8.67;100.00;99083.72;5039523;27;119575;-73
2022/05/31 01:57:25;;;;;;;9.48;7.65;;;8.80;99.90;;;8.72;100.00;99094.41;5023282;27;130754;-78
2022/05/31 02:00:01;;;;;;;9.43;7.53;;;8.70;99.90;;;8.74;100.00;99097.59;5043698;27;129624;-80
2022/05/31 02:02:30;;;;;;;12.13;8.13;;;8.70;99.90;;;8.75;100.00;99099.19;5042542;27;122294;-80
2022/05/31 02:04:58;;;;;;;9.40;7.82;;;8.70;99.90;;;8.79;100.00;99100.19;5010986;27;121745;-74
2022/05/31 02:07:30;;;;;;;9.77;8.25;;;8.70;99.90;;;8.80;100.00;99099.06;5025111;27;129732;-76
2022/05/31 02:09:59;;;;;;;10.77;7.95;;;8.70;99.90;;;8.84;100.00;99097.34;5024196;27;129842;-75
2022/05/31 02:12:33;;;;;;;9.98;7.35;;;8.80;99.90;;;8.91;100.00;99105.81;5007814;27;118385;-75
2022/05/31 02:15:31;;;;;;;9.50;7.85;;;8.80;99.90;;;8.99;100.00;99110.47;5032006;27;119956;-77
2022/05/31 02:18:17;;;;;;;10.13;7.72;;;8.90;99.90;;;9.04;100.00;99122.25;5038870;27;130210;-76
2022/05/31 02:21:05;;;;;;;9.40;7.25;;;8.90;99.90;;;9.10;100.00;99116.44;5039120;27;129679;-73
2022/05/31 02:23:35;;;;;;;10.23;7.20;;;9.00;99.90;;;9.20;100.00;99131.59;5038817;27;118515;-75
2022/05/31 02:26:04;;;;;;;9.40;7.38;;;9.00;99.90;;;9.25;100.00;99131.44;5023920;27;119588;-76
2022/05/31 02:28:33;;;;;;;9.93;7.10;;;9.00;99.90;;;9.24;100.00;99137.19;5019315;27;129768;-75
2022/05/31 02:31:01;;;;;;;10.00;7.45;;;9.00;99.90;;;9.22;100.00;99145.63;5040182;27;130069;-74
2022/05/31 02:33:30;;;;;;;9.23;7.78;;;9.00;99.90;;;9.18;100.00;99150.06;5020299;27;119891;-74
2022/05/31 02:35:59;;;;;;;9.27;6.68;;;9.00;99.90;;;9.24;100.00;99148.84;5023890;27;119490;-75
2022/05/31 02:38:27;;;;;;;12.70;7.97;;;9.00;99.90;;;9.32;100.00;99150.78;5021060;27;130169;-77
2022/05/31 02:40:57;;;;;;;11.27;7.97;;;9.10;99.90;;;9.50;100.00;99151.63;5010373;27;129763;-78
2022/05/31 02:43:26;;;;;;;9.18;6.50;;;9.10;99.90;;;9.67;100.00;99161.75;5027487;27;118523;-77
2022/05/31 02:45:55;;;;;;;9.30;6.80;;;9.10;99.90;;;9.79;100.00;99165.78;5042782;27;120134;-74
2022/05/31 02:48:24;;;;;;;9.32;6.65;;;9.30;99.90;;;9.82;100.00;99162.44;5023545;27;129958;-81
2022/05/31 02:50:53;;;;;;;8.57;6.78;;;9.30;99.90;;;9.96;100.00;99168.53;5041601;27;129483;-73
2022/05/31 02:53:21;;;;;;;10.68;7.90;;;9.30;99.90;;;9.97;100.00;99169.31;5022974;27;121872;-80
2022/05/31 02:55:50;;;;;;;9.32;7.43;;;9.30;99.90;;;9.99;100.00;99159.78;5042211;27;122244;-74
2022/05/31 02:58:38;;;;;;;10.45;8.00;;;9.30;99.90;;;9.90;100.00;99175.22;5042548;27;130352;-76
2022/05/31 03:01:30;;;;;;;11.82;8.88;;;9.30;99.90;;;9.91;100.00;99168.69;5034472;27;129556;-76
2022/05/31 03:04:17;;;;;;;12.25;9.75;;;9.30;99.90;;;9.78;100.00;99167.69;5042145;27;120022;-75
2022/05/31 03:07:09;;;;;;;12.82;9.75;;;9.40;99.90;;;9.68;100.00;99176.91;5041773;27;119614;-75
2022/05/31 03:09:52;;;;;;;13.30;9.70;;;9.30;99.90;;;9.64;100.00;99173.19;5009922;27;129288;-76
2022/05/31 03:12:23;;;;;;;12.55;10.35;;;9.30;99.90;;;9.67;100.00;99171.78;5009884;27;129711;-75
2022/05/31 03:14:59;;;;;;;11.88;10.27;;;9.30;99.90;;;9.63;100.00;99182.47;5023465;27;119764;-72
2022/05/31 03:17:33;;;;;;;13.20;9.77;;;9.30;99.90;;;9.67;100.00;99183.41;5009732;27;119182;-74
2022/05/31 03:20:07;;;;;;;12.82;10.50;;;9.40;99.90;;;9.71;100.00;99197.94;5039874;27;130062;-72
2022/05/31 03:22:40;;;;;;;13.80;11.25;;;9.40;99.90;;;9.77;100.00;99186.97;5026406;27;128149;-72
2022/05/31 03:25:14;;;;;;;14.43;10.02;;;9.40;99.90;;;9.80;100.00;99186.34;5043060;27;120083;-73
2022/05/31 03:27:44;;;;;;;15.38;12.10;;;9.50;99.90;;;9.95;100.00;99196.75;5026262;27;118602;-74
2022/05/31 03:30:16;;;;;;;14.13;11.73;;;9.50;99.90;;;9.97;100.00;99196.44;5041029;27;131665;-74
2022/05/31 03:32:46;;;;;;;13.52;10.52;;;9.50;99.90;;;10.05;100.00;99209.22;5049980;27;129593;-72
2022/05/31 03:35:14;;;;;;;14.63;10.65;;;9.50;99.90;;;10.29;100.00;99206.09;5041703;27;120325;-75
2022/05/31 03:37:43;;;;;;;11.70;9.48;;;9.60;99.90;;;10.63;100.00;99201.84;5041677;27;119241;-73
2022/05/31 03:43:21;;;;;;;12.43;9.52;;;10.30;99.90;;;11.57;97.60;99200.41;5047606;27;127931;-72
2022/05/31 03:46:14;;;;;;;10.27;8.50;;;10.50;90.50;;;11.73;95.81;99204.19;5061281;27;121875;-74
2022/05/31 03:49:02;;;;;;;10.52;8.73;;;10.60;1.00;;;11.80;95.02;99209.91;5085157;27;121573;-71
2022/05/31 03:51:40;;;;;;;10.13;7.82;;;10.60;1.00;;;11.78;93.89;99212.19;5065277;27;129489;-72
2022/05/31 03:54:29;;;;;;;11.13;8.80;;;10.40;1.00;;;11.77;93.29;99210.56;5080119;27;129275;-73
2022/05/31 03:57:07;;;;;;;12.48;8.05;;;10.40;1.00;;;12.07;92.17;99205.19;5066318;27;118705;-77
2022/05/31 03:59:38;;;;;;;10.23;8.00;;;10.40;1.00;;;12.27;91.32;99213.72;5048425;27;118750;-77
2022/05/31 04:02:09;;;;;;;9.45;7.97;;;10.60;1.00;;;12.18;90.84;99214.53;5062533;27;130170;-70
2022/05/31 04:04:40;;;;;;;10.38;8.40;;;10.50;1.00;;;12.35;90.21;99226.47;5063687;27;130277;-75
2022/05/31 04:07:09;;;;;;;10.43;7.68;;;10.70;1.00;;;12.66;89.69;99219.84;5067179;27;119883;-70
2022/05/31 04:09:39;;;;;;;10.38;7.78;;;10.90;1.00;;;12.85;88.53;99217.44;5080878;27;119495;-73
2022/05/31 04:12:11;;;;;;;9.18;7.35;;;11.00;1.00;;;12.89;87.58;99221.09;5061944;27;129987;-73
2022/05/31 04:14:58;;;;;;;8.60;6.85;;;11.00;1.00;;;12.75;87.67;99223.31;5081518;27;129025;-74
2022/05/31 04:17:29;;;;;;;10.65;7.40;;;10.90;1.00;;;12.48;88.06;99228.16;5083314;27;119246;-71
2022/05/31 04:19:58;;;;;;;9.77;8.10;;;10.60;1.00;;;12.61;88.38;99217.34;5080544;27;119175;-74
2022/05/31 04:22:26;;;;;;;9.02;7.75;;;10.70;1.00;;;12.71;88.23;99222.38;5049076;27;128964;-75
2022/05/31 04:25:02;;;;;;;9.80;8.32;;;10.70;1.00;;;12.78;87.51;99228.09;5049038;27;129689;-75
2022/05/31 04:27:49;;;;;;;9.65;8.00;;;10.60;1.00;;;12.79;87.02;99229.66;5066462;27;119076;-74
2022/05/31 04:30:36;;;;;;;10.57;8.40;;;10.70;1.00;;;12.71;87.15;99235.97;5082138;27;119489;-75
2022/05/31 04:33:36;;;;;;;9.98;7.93;;;10.70;1.00;;;12.93;87.26;99229.38;5064817;27;130355;-75
2022/05/31 04:36:08;;;;;;;10.52;7.80;;;10.90;1.00;;;12.95;86.20;99222.50;5065857;27;129062;-78
2022/05/31 04:38:38;;;;;;;8.50;7.43;;;11.00;1.00;;;13.06;86.25;99222.88;5080394;27;121943;-75
2022/05/31 04:41:21;;;;;;;9.77;8.55;;;11.00;1.00;;;13.15;85.40;99244.59;5063177;27;122893;-74
2022/05/31 04:44:07;;;;;;;10.23;8.80;;;11.00;1.00;;;13.35;85.49;99248.41;5065726;27;129325;-77
2022/05/31 04:46:38;;;;;;;10.95;8.18;;;11.30;1.00;;;13.52;85.31;99255.63;5079786;27;129701;-77
2022/05/31 04:49:16;;;;;;;11.93;8.57;;;11.50;1.00;;;13.95;84.11;99259.81;5081480;27;120079;-77
2022/05/31 04:51:45;;;;;;;10.50;8.10;;;12.00;1.00;;;14.08;83.11;99268.00;5049249;27;118864;-78
2022/05/31 04:54:20;;;;;;;10.60;8.23;;;12.00;1.00;;;14.23;81.72;99269.22;5065337;27;129706;-74
2022/05/31 04:56:52;;;;;;;9.45;7.50;;;11.80;1.00;;;14.11;79.73;99267.31;5081178;27;129415;-78
2022/05/31 04:59:22;;;;;;;9.05;8.15;;;11.40;1.00;;;14.25;79.37;99272.44;5060917;27;119697;-76
2022/05/31 05:01:52;;;;;;;10.43;7.43;;;11.50;1.00;;;14.23;79.37;99280.16;5059216;27;119638;-79
2022/05/31 05:04:36;;;;;;;9.55;7.03;;;11.50;1.00;;;14.65;79.37;99275.28;5060796;27;130357;-78
2022/05/31 05:07:05;;;;;;;9.35;6.97;;;12.30;1.00;;;14.83;78.05;99275.00;5044738;27;129893;-77
2022/05/31 05:09:33;;;;;;;11.25;6.88;;;12.50;1.00;;;14.57;77.18;99285.16;5045568;27;119147;-77
2022/05/31 05:12:37;;;;;;;8.63;6.97;;;12.00;1.00;;;14.26;78.20;99291.19;5035603;27;119513;-78
2022/05/31 05:15:19;;;;;;;8.25;7.25;;;11.70;1.00;;;14.51;78.33;99293.94;5041238;27;132603;-76
2022/05/31 05:17:48;;;;;;;8.88;7.35;;;11.90;1.00;;;14.70;78.24;99304.28;5061880;27;129897;-75
2022/05/31 05:20:18;;;;;;;9.40;6.63;;;12.10;1.00;;;15.27;76.17;99311.44;5042052;27;119745;-77
2022/05/31 05:22:50;;;;;;;8.90;7.35;;;12.70;1.00;;;15.26;74.56;99300.84;5045641;27;119341;-73
2022/05/31 05:25:19;;;;;;;10.18;7.07;;;12.50;1.00;;;15.06;73.94;99300.66;5054160;27;129574;-77
2022/05/31 05:30:38;;;;;;;8.35;6.97;;;12.20;1.00;;;14.43;75.36;99305.75;5041256;27;129663;-74
2022/05/31 05:30:54;;;;;;;8.63;7.60;;;11.50;1.00;;;14.45;76.28;99298.03;5043747;27;121363;-77
2022/05/31 05:33:23;;;;;;;10.73;7.47;;;11.70;1.00;;;14.50;76.95;99295.06;5060001;27;121697;-78
2022/05/31 05:36:19;;;;;;;8.57;6.78;;;11.90;1.00;;;14.23;77.37;99302.81;5062679;27;129758;-73
2022/05/31 05:38:49;;;;;;;11.35;6.88;;;11.90;1.00;;;14.45;76.79;99298.03;5044187;27;128590;-74
2022/05/31 05:41:32;;;;;;;10.00;6.60;;;12.10;1.00;;;14.13;77.01;99287.69;5051915;27;118918;-77
2022/05/31 05:44:19;;;;;;;7.75;6.18;;;12.10;1.00;;;14.41;76.75;99288.91;5051938;27;119547;-81
2022/05/31 05:46:48;;;;;;;12.73;7.32;;;12.20;1.00;;;14.54;75.64;99291.31;5040989;27;129540;-77
2022/05/31 05:49:17;;;;;;;9.88;6.75;;;12.10;1.00;;;14.63;75.28;99288.47;5046989;27;130031;-77
2022/05/31 05:51:48;;;;;;;11.85;6.45;;;12.10;1.00;;;14.99;75.79;99295.00;5047549;27;119811;-79
2022/05/31 05:54:35;;;;;;;10.70;6.30;;;12.50;1.00;;;15.31;74.94;99295.13;5062152;27;118489;-77
2022/05/31 05:57:22;;;;;;;10.13;6.78;;;12.70;1.00;;;15.31;72.62;99300.56;5058797;27;130136;-77
2022/05/31 06:00:11;;;;;;;9.52;6.90;;;12.80;1.00;;;15.33;72.01;99292.81;5080011;27;129427;-76
2022/05/31 06:03:07;;;;;;;8.77;7.13;;;12.70;1.00;;;15.09;71.08;99296.44;5065177;27;119003;-74
2022/05/31 06:05:49;;;;;;;8.75;6.90;;;12.20;1.00;;;14.74;75.12;99292.31;5065555;27;119388;-76
2022/05/31 06:08:24;;;;;;;10.32;6.68;;;12.20;1.00;;;14.91;74.84;99295.91;5079782;27;129879;-79
2022/05/31 06:11:07;;;;;;;8.33;6.40;;;12.40;1.00;;;14.96;71.09;99297.63;5079700;27;129574;-73
2022/05/31 06:13:42;;;;;;;8.02;6.25;;;12.10;1.00;;;15.16;73.17;99304.06;5057498;27;119961;-78
2022/05/31 06:16:12;;;;;;;8.27;5.55;;;12.60;1.00;;;15.40;72.60;99311.38;5073538;27;119358;-77
2022/05/31 06:18:47;;;;;;;8.40;6.13;;;12.90;1.00;;;15.73;72.03;99316.56;5065783;27;128489;-79
2022/05/31 06:21:18;;;;;;;9.30;6.35;;;13.40;1.00;;;15.80;71.44;99311.31;5065257;27;128929;-79
2022/05/31 06:23:52;;;;;;;8.98;6.65;;;13.50;1.00;;;15.96;70.30;99313.28;5060757;27;122980;-78
2022/05/31 06:26:21;;;;;;;9.07;6.13;;;13.20;1.00;;;16.14;69.38;99322.75;5078933;27;121798;-78
2022/05/31 06:29:00;;;;;;;8.20;5.72;;;13.40;1.00;;;16.46;68.62;99322.72;5078693;27;130208;-79
2022/05/31 06:31:28;;;;;;;17.35;13.88;;;13.90;1.00;;;16.99;67.14;99325.09;5080401;27;129360;-79
2022/05/31 06:33:57;;;;;;;7.53;5.38;;;14.30;1.00;;;17.23;65.41;99328.72;5065276;27;119507;-78
2022/05/31 06:36:39;;;;;;;9.07;6.10;;;14.30;1.00;;;17.40;65.15;99330.25;5049160;27;119285;-76
2022/05/31 06:39:09;;;;;;;7.57;5.85;;;14.40;1.00;;;17.36;65.06;99337.63;5079900;27;130291;-80
2022/05/31 06:41:39;;;;;;;6.15;4.78;;;14.20;1.00;;;17.88;63.55;99344.50;5065311;27;129774;-78
2022/05/31 06:44:07;;;;;;;9.20;4.82;;;14.60;1.00;;;17.76;63.17;99350.13;5081058;27;119724;-77
2022/05/31 06:46:59;;;;;;;7.43;5.10;;;14.60;1.00;;;17.70;61.58;99335.94;5051371;27;119797;-76
2022/05/31 06:49:53;;;;;;;11.80;6.22;;;14.50;99.90;;;17.18;63.11;99343.50;5052694;27;129756;-73
2022/05/31 06:58:54;;;;;;;14.45;6.18;;;13.40;1.00;;;16.75;66.12;99345.31;5037020;27;119518;-77
2022/05/31 07:01:30;;;;;;;8.45;5.65;;;13.90;1.00;;;16.67;65.20;99351.75;5041448;27;129811;-78
2022/05/31 07:04:00;;;;;;;9.15;6.15;;;13.90;1.00;;;16.61;64.22;99348.50;5026216;27;128351;-77
2022/05/31 07:06:29;;;;;;;7.70;5.38;;;13.40;1.00;;;16.57;65.89;99352.31;5040421;27;120232;-77
2022/05/31 07:09:17;;;;;;;9.02;6.10;;;13.70;1.00;;;16.88;66.17;99349.53;5062686;27;120043;-79
2022/05/31 07:11:47;;;;;;;8.30;6.05;;;14.20;1.00;;;17.16;64.76;99356.00;5027317;27;129122;-77
2022/05/31 07:14:35;;;;;;;7.53;5.10;;;14.50;1.00;;;17.24;63.51;99357.75;5059024;27;129527;-72
2022/05/31 07:17:21;;;;;;;7.60;5.47;;;14.60;99.90;;;17.40;64.80;99350.22;5042878;27;121233;-75
2022/05/31 07:19:54;;;;;;;9.73;5.43;;;14.70;99.90;;;17.34;63.44;99362.66;5061630;27;122363;-79
2022/05/31 07:22:22;;;;;;;7.20;5.32;;;14.40;99.90;;;17.44;63.26;99361.28;5048875;27;129722;-79
2022/05/31 07:24:58;;;;;;;8.68;5.13;;;14.50;99.90;;;17.15;62.10;99365.38;5043889;27;129124;-72
2022/05/31 07:27:35;;;;;;;9.10;5.93;;;14.20;99.90;;;16.98;62.80;99372.84;5034800;27;119459;-75
2022/05/31 07:30:09;;;;;;;8.15;5.22;;;14.10;99.90;;;16.91;64.24;99372.69;5032834;27;116584;-77
2022/05/31 07:32:38;;;;;;;8.13;4.55;;;14.30;99.90;;;17.02;64.81;99367.47;5034461;27;128559;-77
2022/05/31 07:35:07;;;;;;;6.65;4.65;;;14.70;99.90;;;17.06;63.36;99379.28;5064596;27;129140;-78
2022/05/31 07:37:36;;;;;;;6.00;4.47;;;14.80;99.90;;;16.97;62.33;99381.41;5043652;27;119555;-74
2022/05/31 07:40:07;;;;;;;10.55;5.13;;;14.60;99.90;;;17.02;62.25;99395.66;5061770;27;119991;-75
2022/05/31 07:42:39;;;;;;;9.80;5.28;;;14.40;99.90;;;17.03;64.11;99394.50;5026237;27;130655;-77
2022/05/31 07:45:11;;;;;;;11.23;5.03;;;14.70;99.90;;;17.11;63.97;99392.72;5044161;27;129492;-77
2022/05/31 07:47:39;;;;;;;11.35;5.60;;;14.90;99.90;;;17.07;64.14;99386.34;5042919;27;120076;-76
2022/05/31 07:50:09;;;;;;;7.28;4.68;;;14.90;99.90;;;17.15;63.08;99377.13;5046286;27;119514;-74
2022/05/31 07:52:59;;;;;;;8.57;4.53;;;14.90;99.90;;;17.35;63.33;99390.88;5046028;27;129375;-76
2022/05/31 07:55:39;;;;;;;15.48;5.75;;;15.10;99.90;;;17.05;61.71;99400.41;5063481;27;129726;-76
2022/05/31 07:58:42;;;;;;;11.38;5.05;;;14.70;99.90;;;16.87;60.96;99396.47;5064140;27;119356;-80
2022/05/31 08:01:46;;;;;;;10.35;5.05;;;14.50;99.90;;;17.16;63.62;99392.44;5028044;27;119584;-76
2022/05/31 08:04:32;;;;;;;16.67;5.10;;;15.10;99.90;;;17.16;61.79;99397.13;5061166;27;130563;-76
2022/05/31 08:07:01;;;;;;;11.32;4.68;;;14.80;99.90;;;17.17;60.66;99402.25;5046224;27;129134;-77
2022/05/31 08:09:29;;;;;;;9.02;4.43;;;15.00;99.90;;;17.48;61.60;99399.75;5061303;27;122471;-76
2022/05/31 08:11:58;;;;;;;10.13;4.95;;;15.30;99.90;;;17.40;61.73;99396.06;5033331;27;121090;-72
2022/05/31 08:14:28;;;;;;;9.38;4.53;;;15.30;99.90;;;17.49;61.22;99410.38;5043608;27;130649;-80
2022/05/31 08:16:56;;;;;;;7.85;4.53;;;15.30;99.90;;;17.73;59.87;99413.97;5043883;27;129087;-77
2022/05/31 08:19:25;;;;;;;8.48;4.50;;;15.60;99.90;;;17.56;58.20;99418.75;5060938;27;119645;-76
2022/05/31 08:21:54;;;;;;;7.95;4.00;;;15.20;99.90;;;17.39;58.54;99424.66;5045371;27;118879;-74
2022/05/31 08:24:22;;;;;;;8.95;4.53;;;15.00;99.90;;;17.22;61.57;99421.16;5060713;27;130089;-75
2022/05/31 08:26:51;;;;;;;8.27;4.03;;;15.30;99.90;;;17.60;63.05;99419.59;5045302;27;130126;-73
2022/05/31 08:29:20;;;;;;;5.88;4.32;;;15.60;99.90;;;17.73;59.88;99434.00;5042491;27;120035;-75
2022/05/31 08:31:50;;;;;;;6.63;3.95;;;15.60;99.90;;;17.86;60.08;99431.91;5046258;27;119105;-79
2022/05/31 08:34:18;;;;;;;7.53;3.85;;;15.80;99.90;;;18.19;58.46;99436.06;5059438;27;130507;-76
2022/05/31 08:36:46;;;;;;;7.07;3.83;;;15.90;99.90;;;18.40;60.37;99440.34;5028256;27;129821;-79
2022/05/31 08:39:15;;;;;;;6.18;3.85;;;16.30;99.90;;;18.59;58.85;99440.31;5060876;27;119630;-77
2022/05/31 08:41:47;;;;;;;6.18;3.88;;;16.30;99.90;;;18.78;58.58;99424.91;5045874;27;118407;-76
2022/05/31 08:44:41;;;;;;;7.38;4.05;;;16.30;99.90;;;18.98;58.20;99434.69;5060713;27;130046;-79
2022/05/31 08:47:22;;;;;;;5.50;4.07;;;16.80;99.90;;;19.29;54.95;99438.28;5059457;27;129546;-77
2022/05/31 08:53:05;;;;;;;4.97;3.42;;;16.50;99.90;;;18.88;55.44;99440.78;5060442;27;119411;-75
2022/05/31 08:58:40;;;;;;;6.05;3.47;;;15.80;99.90;;;18.67;57.15;99444.75;5023296;27;128301;-76
2022/05/31 09:01:11;;;;;;;9.05;4.32;;;16.30;99.90;;;18.80;56.68;99436.31;5057781;27;122566;-76
2022/05/31 09:03:46;;;;;;;17.13;4.50;;;16.30;99.90;;;18.40;56.84;99443.09;5060236;27;121828;-76
2022/05/31 09:06:19;;;;;;;8.33;4.07;;;15.90;99.90;;;18.48;58.92;99447.56;5060215;27;130046;-75
2022/05/31 09:08:59;;;;;;;5.00;2.90;;;16.10;99.90;;;18.74;53.46;99446.03;5033269;27;129102;-78
2022/05/31 09:11:33;;;;;;;6.10;3.30;;;16.20;99.90;;;18.65;54.63;99433.34;5039873;27;119567;-74
2022/05/31 09:14:11;;;;;;;6.43;3.05;;;16.10;99.90;;;19.03;55.20;99441.81;5039880;27;119168;-78
2022/05/31 09:16:53;;;;;;;4.45;2.72;;;16.60;99.90;;;19.55;54.74;99444.88;5039995;27;130717;-78
2022/05/31 09:19:33;;;;;;;4.70;2.97;;;17.40;99.90;;;19.84;52.22;99445.28;5040103;27;130059;-77
2022/05/31 09:22:02;;;;;;;4.60;2.70;;;17.60;99.90;;;19.84;53.22;99448.81;5039468;27;120292;-74
2022/05/31 09:24:31;;;;;;;5.63;2.67;;;17.60;99.90;;;19.95;50.32;99451.72;5039652;27;119707;-76
2022/05/31 09:27:11;;;;;;;4.13;2.72;;;17.40;99.90;;;20.05;50.61;99451.03;5037886;27;130322;-79
2022/05/31 09:30:01;;;;;;;3.83;2.42;;;17.70;99.90;;;19.87;51.17;99453.59;5039494;27;129623;-77
2022/05/31 09:32:55;;;;;;;7.05;2.85;;;17.70;99.90;;;20.28;50.95;99452.84;5024562;27;118747;-78
2022/05/31 09:35:58;;;;;;;4.90;2.92;;;18.00;99.90;;;20.25;49.58;99461.88;5039512;27;119554;-78
2022/05/31 09:39:00;;;;;;;5.70;2.72;;;18.00;99.90;;;20.03;48.00;99453.38;5023868;27;130172;-76
2022/05/31 09:41:37;;;;;;;7.30;3.00;;;17.00;99.90;;;20.55;47.97;99458.22;5007006;27;129771;-78
2022/05/31 09:44:17;;;;;;;6.93;2.80;;;17.10;99.90;;;20.43;47.82;99454.56;5021396;27;119811;-73
2022/05/31 09:46:53;;;;;;;6.53;2.88;;;17.80;99.90;;;20.30;49.65;99456.00;5039932;27;119363;-76
2022/05/31 09:49:36;;;;;;;5.47;2.72;;;17.50;99.90;;;20.54;47.17;99460.19;5020473;27;130715;-76
2022/05/31 09:52:12;;;;;;;6.35;3.20;;;17.60;99.90;;;20.05;46.79;99466.75;5039296;27;129911;-80
2022/05/31 09:58:24;;;;;;;4.93;2.80;;;17.30;99.90;;;20.65;47.86;99466.59;5024390;27;121369;-77
2022/05/31 10:01:29;;;;;;;6.03;3.45;;;18.20;99.90;;;21.45;46.14;99479.00;5019615;27;128941;-77
2022/05/31 10:04:27;;;;;;;4.82;2.70;;;18.60;99.90;;;21.72;46.60;99476.00;5030200;27;130201;-78
2022/05/31 10:07:01;;;;;;;6.72;2.38;;;19.10;99.90;;;21.64;46.76;99474.41;5039415;27;120228;-77
2022/05/31 10:09:36;;;;;;;4.35;2.65;;;18.80;99.90;;;21.41;47.23;99482.91;5039226;27;119356;-76
2022/05/31 10:12:16;;;;;;;4.68;2.53;;;18.30;99.90;;;21.44;46.08;99480.19;5037708;27;130767;-79
2022/05/31 10:14:48;;;;;;;8.45;2.80;;;18.30;99.90;;;21.47;45.11;99482.19;5039155;27;129668;-74
2022/05/31 10:17:37;;;;;;;6.40;2.45;;;18.50;99.90;;;20.99;45.40;99479.50;5020600;27;119398;-79
2022/05/31 10:20:21;;;;;;;4.65;2.45;;;17.90;99.90;;;21.45;44.56;99483.75;5023051;27;119725;-75
2022/05/31 10:22:57;;;;;;;4.93;2.65;;;17.80;99.90;;;22.05;44.35;99482.47;5037095;27;131384;-74
2022/05/31 10:25:50;;;;;;;6.35;2.83;;;18.60;99.90;;;21.04;44.94;99481.91;5038498;27;129868;-77
2022/05/31 10:28:41;;;;;;;6.10;2.65;;;18.00;99.90;;;20.63;45.53;99484.66;5038753;27;119213;-74
2022/05/31 10:31:29;;;;;;;5.82;3.15;;;17.50;99.90;;;20.28;46.38;99491.41;5019940;27;119124;-73
2022/05/31 10:34:02;;;;;;;4.20;2.72;;;17.40;99.90;;;20.10;46.45;99492.03;5023361;27;129974;-75
2022/05/31 10:36:33;;;;;;;4.28;2.55;;;17.00;99.90;;;20.54;46.38;99498.00;5005946;27;129492;-75
2022/05/31 10:39:11;;;;;;;5.72;2.63;;;17.50;99.90;;;20.33;47.11;99493.81;5038413;27;119722;-75
2022/05/31 10:41:41;;;;;;;7.45;3.15;;;17.20;99.90;;;20.92;45.91;99496.00;5038744;27;120252;-78
2022/05/31 10:44:22;;;;;;;4.60;2.70;;;17.90;99.90;;;20.92;44.75;99490.47;5037861;27;130670;-76
2022/05/31 10:46:58;;;;;;;5.88;2.75;;;17.50;99.90;;;21.33;44.25;99498.66;5038272;27;129314;-74
2022/05/31 10:49:26;;;;;;;4.25;2.40;;;18.00;99.90;;;22.10;44.75;99497.88;5036700;27;122149;-77
2022/05/31 10:52:06;;;;;;;5.07;2.30;;;19.30;99.90;;;22.69;41.18;99506.72;5038807;27;121587;-75
2022/05/31 10:54:53;;;;;;;5.53;2.88;;;19.50;99.90;;;22.56;41.18;99506.31;5037591;27;130181;-75
2022/05/31 10:57:44;;;;;;;3.75;2.20;;;19.00;99.90;;;22.72;39.39;99507.91;5022856;27;129147;-72
2022/05/31 11:00:20;;;;;;;5.55;2.50;;;18.90;99.90;;;22.65;41.25;99496.84;5021998;27;120063;-74
2022/05/31 11:03:03;;;;;;;;;;;18.10;99.90;;;21.61;43.97;99511.06;5025735;27;120931;-75
2022/05/31 11:05:50;;;;;;;4.90;2.50;;;18.30;99.90;;;21.99;44.35;99500.59;5040026;27;129852;-78
2022/05/31 11:11:39;;;;;;;4.55;2.47;;;19.40;99.90;;;22.55;43.27;99492.91;5041587;27;119636;-74
2022/05/31 11:14:31;;;;;;;6.18;2.60;;;19.80;99.90;;;23.15;41.46;99488.56;5026526;27;118560;-76
2022/05/31 11:17:17;;;;;;;4.65;2.55;;;20.00;99.90;;;23.39;40.31;99486.97;5042028;27;130108;-75